Portada
METAR-TAF:

METAR-TAF

Aeroports :

Nanquín, Xina

latitud: 32-00N, longitud: 118-48E, altitud: 12 m

Observació

L'informe es va fer fa 25 minuts, a les 22:00 UTC
Vent 2 kt del Nord-Est
Temperatura 20°C
Humitat 94%
Pressió 1012 hPa
Visibilitat 10 km o més
sense núvols per sota de 1500 mi sense presència de cumulonimbus.

METAR: ZSNJ 282200Z 04001MPS CAVOK 20/19 Q1012 NOSIG

Hora: 06:25 (22:25 UTC)

Pronòstic

L'informe es va fer fa 7 hores i 24 minuts, a les 15:01 UTC
Pronòstic vàlid del 28 a les 18 UTC al 29 a les 18 UTC
Vent 8 kt del Est
Visibilitat: 3000 m
Núvols disperses a una alçada de 3300 ft
boirina

TAF: ZSNJ 281501Z 2818/2918 09004MPS 3000 BR SCT033 TX26/2906Z TN18/2821Z

Observacions i pronòstics meteorològics de més de 4000 aeroports (METAR i TAF).

Les estacions disponibles són els punts grocs i vermells al mapa.

Posi el ratolí al punt desitjat per veure el nom de l'estació.

Feu clic per veure les observacions i els pronòstics meteorològics.

Per canviar el mapa: feu clic els botons verds amb una creu de color negre per apropar; al botó verd amb un guió per allunyar la imatge; o en les fletxes verdes per a mapes adjacents.


METAR-TAF: